Terminal Aerodrome Forecast
Issued by NWS Detroit/Pontiac, MI

Home | Current Version | Previous Version | Text Only | Print | Product List | Glossary On
Versions: 1 2 3 4 5 6 7 8 9 10 11 12 13 14 15 16 17 18 19 20 21 22 23 24
000
FTUS43 KDTX 261721
TAFDTW
TAF
KDTW 261721Z 2618/2724 22012KT P6SM BKN035 BKN045
     FM262000 23012KT P6SM BKN050 BKN200
      TEMPO 2621/2624 2SM TSRA OVC030CB
     FM270100 VRB04KT P6SM SCT060 BKN150
     FM271000 19004KT 3SM BR SCT025 BKN200
     FM271300 20010KT P6SM BKN040 PROB30 2720/2724 6SM TSRA
      OVC035CB=

USA.gov is the U.S. government's official web portal to all federal, state and local government web resources and services.